Time;durP1;ratioP1;P1;durP2;ratioP2;P2;SDS_P1;SDS_P2;PMS_P1;PMS_P2;Temp;Humidity;BMP_temperature;BMP_pressure;BME280_temperature;BME280_humidity;BME280_pressure;Samples;Min_cycle;Max_cycle;Signal;HPM_P1;HPM_P2
2022/06/12 00:00:12;;;;;;;6.35;0.80;;;13.90;99.90;;;;;;5016038;28;20060;-86
2022/06/12 00:02:37;;;;;;;4.30;0.75;;;13.80;99.90;;;;;;5016005;28;20409;-86
2022/06/12 00:05:04;;;;;;;8.90;0.50;;;13.90;99.90;;;;;;5015949;28;20018;-85
2022/06/12 00:07:29;;;;;;;7.45;0.57;;;13.80;99.90;;;;;;5015976;28;20044;-86
2022/06/12 00:09:55;;;;;;;4.50;0.60;;;13.80;99.90;;;;;;5015923;28;20034;-86
2022/06/12 00:12:20;;;;;;;10.73;1.05;;;13.80;99.90;;;;;;5015762;28;20029;-86
2022/06/12 00:14:46;;;;;;;8.77;0.60;;;13.80;99.90;;;;;;5016163;28;20047;-86
2022/06/12 00:17:11;;;;;;;7.13;0.60;;;13.80;99.90;;;;;;5015961;28;20057;-85
2022/06/12 00:19:40;;;;;;;8.48;0.80;;;13.70;99.90;;;;;;5015981;28;20145;-84
2022/06/12 00:22:06;;;;;;;6.05;0.50;;;13.70;99.90;;;;;;5017639;28;20022;-85
2022/06/12 00:24:32;;;;;;;6.30;0.52;;;13.60;99.90;;;;;;5019998;28;20087;-85
2022/06/12 00:26:58;;;;;;;4.75;0.50;;;13.50;99.90;;;;;;5037066;28;20033;-85
2022/06/12 00:29:29;;;;;;;6.43;0.60;;;13.40;99.90;;;;;;5036238;28;20441;-86
2022/06/12 00:31:59;;;;;;;6.85;0.60;;;13.30;99.90;;;;;;5019814;28;20397;-86
2022/06/12 00:34:29;;;;;;;5.85;0.50;;;13.20;99.90;;;;;;5036757;28;20053;-86
2022/06/12 00:36:56;;;;;;;3.30;0.40;;;13.10;99.90;;;;;;5019539;28;20025;-85
2022/06/12 00:39:23;;;;;;;3.63;0.50;;;13.10;99.90;;;;;;5037006;28;20040;-86
2022/06/12 00:41:50;;;;;;;6.80;0.50;;;13.00;99.90;;;;;;5019453;28;20052;-85
2022/06/12 00:44:19;;;;;;;8.60;0.70;;;12.90;99.90;;;;;;5037133;28;20030;-86
2022/06/12 00:46:52;;;;;;;7.60;0.70;;;12.90;99.90;;;;;;5019340;28;20029;-86
2022/06/12 00:49:29;;;;;;;6.88;0.40;;;12.80;99.90;;;;;;5036920;28;20034;-87
2022/06/12 00:52:10;;;;;;;9.13;1.00;;;12.70;99.90;;;;;;5036894;28;20029;-86
2022/06/12 00:54:38;;;;;;;7.55;0.70;;;12.60;99.90;;;;;;5016284;28;20045;-86
2022/06/12 00:57:06;;;;;;;7.10;0.60;;;12.60;99.90;;;;;;5036807;28;20414;-86
2022/06/12 00:59:48;;;;;;;5.38;0.40;;;12.50;99.90;;;;;;5036562;28;20033;-86
2022/06/12 01:02:20;;;;;;;4.47;0.52;;;12.50;99.90;;;;;;5018954;28;20164;-85
2022/06/12 01:07:35;;;;;;;6.20;0.50;;;12.30;99.90;;;;;;5036980;28;20072;-86
2022/06/12 01:10:04;;;;;;;4.78;0.65;;;12.30;99.90;;;;;;5018876;28;20032;-85
2022/06/12 01:12:33;;;;;;;5.55;0.85;;;12.20;99.90;;;;;;5036119;28;20037;-85
2022/06/12 01:15:05;;;;;;;4.68;0.60;;;12.20;99.90;;;;;;5035493;28;20030;-86
2022/06/12 01:17:31;;;;;;;3.87;0.40;;;12.20;99.90;;;;;;5036243;28;20029;-85
2022/06/12 01:20:00;;;;;;;5.85;0.88;;;12.20;99.90;;;;;;5036524;28;20670;-86
2022/06/12 01:22:53;;;;;;;5.70;0.43;;;12.10;99.90;;;;;;5036101;28;20022;-86
2022/06/12 01:25:37;;;;;;;;;;;12.00;99.90;;;;;;5036766;28;20022;-86
2022/06/12 01:28:33;;;;;;;3.25;0.40;;;12.00;99.90;;;;;;5036198;28;20422;-86
2022/06/12 01:31:25;;;;;;;5.97;0.80;;;12.00;99.90;;;;;;5035096;28;20026;-85
2022/06/12 01:34:18;;;;;;;9.43;3.08;;;11.90;99.90;;;;;;5017832;28;20040;-85
2022/06/12 01:36:53;;;;;;;10.48;1.20;;;11.90;99.90;;;;;;5018285;28;20493;-85
2022/06/12 01:39:29;;;;;;;4.57;0.90;;;11.90;99.90;;;;;;5034787;28;20035;-86
2022/06/12 01:42:01;;;;;;;6.90;0.93;;;11.90;99.90;;;;;;5035050;28;20121;-85
2022/06/12 01:44:50;;;;;;;11.88;1.33;;;11.90;99.90;;;;;;5018482;28;20116;-86
2022/06/12 01:47:39;;;;;;;8.77;0.95;;;11.90;99.90;;;;;;5034975;28;20516;-86
2022/06/12 01:50:12;;;;;;;7.32;1.77;;;11.90;99.90;;;;;;5017726;28;20045;-85
2022/06/12 01:53:16;;;;;;;7.07;0.98;;;11.90;99.90;;;;;;5035641;28;20060;-85
2022/06/12 01:55:53;;;;;;;5.90;1.15;;;11.90;99.90;;;;;;5034763;28;20359;-85
2022/06/12 01:58:27;;;;;;;7.00;1.25;;;11.90;99.90;;;;;;5035613;28;20096;-85
2022/06/12 02:01:12;;;;;;;6.50;1.25;;;11.90;99.90;;;;;;5017953;28;20022;-85
2022/06/12 02:03:48;;;;;;;5.70;1.20;;;11.80;99.90;;;;;;5034665;28;20076;-84
2022/06/12 02:06:24;;;;;;;6.78;1.55;;;11.90;99.90;;;;;;5035463;28;20053;-85
2022/06/12 02:08:58;;;;;;;9.52;1.20;;;11.80;99.90;;;;;;5017813;28;20099;-85
2022/06/12 02:14:21;;;;;;;9.10;1.45;;;11.80;99.90;;;;;;5035470;28;20547;-85
2022/06/12 02:16:51;;;;;;;10.55;1.70;;;11.80;99.90;;;;;;5017745;28;20025;-85
2022/06/12 02:19:21;;;;;;;7.22;1.10;;;11.80;99.90;;;;;;5035234;28;20025;-85
2022/06/12 02:21:52;;;;;;;12.60;1.88;;;11.80;99.90;;;;;;5017696;28;20041;-85
2022/06/12 02:24:39;;;;;;;7.68;1.50;;;11.80;99.90;;;;;;5017841;28;20398;-86
2022/06/12 02:27:20;;;;;;;12.07;1.92;;;11.80;99.90;;;;;;5017610;28;20559;-85
2022/06/12 02:30:00;;;;;;;8.10;1.77;;;11.70;99.90;;;;;;5033145;28;20519;-86
2022/06/12 02:32:36;;;;;;;7.40;1.80;;;11.70;99.90;;;;;;5017558;28;20033;-86
2022/06/12 02:35:22;;;;;;;10.25;2.50;;;11.70;99.90;;;;;;5034791;28;20045;-86
2022/06/12 02:37:54;;;;;;;5.30;1.15;;;11.70;99.90;;;;;;5016953;28;20069;-85
2022/06/12 02:40:40;;;;;;;8.02;1.92;;;11.70;99.90;;;;;;5017672;28;20032;-85
2022/06/12 02:43:12;;;;;;;8.35;1.00;;;11.70;99.90;;;;;;5034805;28;20112;-86
2022/06/12 02:45:43;;;;;;;17.33;3.20;;;11.70;99.90;;;;;;5016158;28;20025;-85
2022/06/12 02:48:09;;;;;;;10.43;1.77;;;11.70;99.90;;;;;;5016626;28;20065;-85
2022/06/12 02:50:41;;;;;;;15.48;2.53;;;11.70;99.90;;;;;;5034594;28;20233;-85
2022/06/12 02:53:20;;;;;;;12.98;1.88;;;11.70;99.90;;;;;;5017155;28;20037;-85
2022/06/12 02:56:05;;;;;;;7.40;1.77;;;11.80;99.90;;;;;;5034559;28;20092;-85
2022/06/12 02:59:17;;;;;;;15.55;1.63;;;11.80;99.90;;;;;;5034268;28;20508;-85
2022/06/12 03:02:03;;;;;;;9.18;2.13;;;11.80;99.90;;;;;;4973897;28;20038;-85
2022/06/12 03:04:47;;;;;;;7.18;1.83;;;11.80;99.90;;;;;;5034512;28;20388;-85
2022/06/12 03:07:14;;;;;;;12.40;2.17;;;11.80;99.90;;;;;;5016601;28;20056;-86
2022/06/12 03:09:41;;;;;;;11.80;1.70;;;11.80;99.90;;;;;;5034486;28;20065;-85
2022/06/12 03:12:07;;;;;;;9.73;2.22;;;11.80;99.90;;;;;;5016752;28;20032;-86
2022/06/12 03:14:33;;;;;;;9.55;2.38;;;11.80;99.90;;;;;;5016645;28;20029;-86
2022/06/12 03:16:59;;;;;;;14.00;2.60;;;11.80;99.90;;;;;;5016457;28;20021;-85
2022/06/12 03:19:28;;;;;;;9.27;2.15;;;11.80;99.90;;;;;;5034163;28;20030;-85
2022/06/12 03:22:22;;;;;;;11.52;2.28;;;11.80;99.90;;;;;;5016464;28;20028;-85
2022/06/12 03:25:38;;;;;;;10.85;1.70;;;11.80;99.90;;;;;;5033017;28;20381;-85
2022/06/12 03:28:32;;;;;;;13.00;2.25;;;11.90;99.90;;;;;;4994491;28;20067;-85
2022/06/12 03:31:01;;;;;;;16.15;2.30;;;11.90;99.90;;;;;;5016801;28;20037;-85
2022/06/12 03:33:30;;;;;;;8.68;2.00;;;11.90;99.90;;;;;;5032920;28;20033;-85
2022/06/12 03:36:07;;;;;;;22.05;2.55;;;11.90;99.90;;;;;;5032665;28;20505;-85
2022/06/12 03:38:39;;;;;;;11.43;2.75;;;12.00;99.90;;;;;;5016221;28;20132;-86
2022/06/12 03:41:05;;;;;;;8.68;2.17;;;11.90;99.90;;;;;;5033858;28;20021;-85
2022/06/12 03:43:33;;;;;;;9.38;2.05;;;11.90;99.90;;;;;;5016387;28;20037;-85
2022/06/12 03:46:18;;;;;;;11.32;2.45;;;12.00;99.90;;;;;;5033890;28;20022;-85
2022/06/12 03:48:59;;;;;;;10.20;2.10;;;12.00;99.90;;;;;;5032352;28;20397;-84
2022/06/12 03:51:31;;;;;;;12.23;2.35;;;12.00;99.90;;;;;;5016334;28;20072;-85
2022/06/12 03:54:09;;;;;;;14.35;2.63;;;12.00;99.90;;;;;;5015934;28;20038;-85
2022/06/12 03:59:34;;;;;;;15.60;3.35;;;12.10;99.90;;;;;;5034077;28;20060;-85
2022/06/12 04:02:03;;;;;;;12.93;2.38;;;12.10;99.90;;;;;;5016135;28;20033;-85
2022/06/12 04:04:31;;;;;;;10.55;2.78;;;12.10;99.90;;;;;;5033531;28;20051;-86
2022/06/12 04:06:59;;;;;;;11.38;1.80;;;12.10;99.90;;;;;;5033514;28;20025;-85
2022/06/12 04:09:27;;;;;;;14.73;2.45;;;12.20;99.90;;;;;;5015962;28;20179;-85
2022/06/12 04:11:59;;;;;;;13.70;3.13;;;12.20;99.90;;;;;;5033430;28;20025;-85
2022/06/12 04:14:30;;;;;;;9.57;2.20;;;12.30;99.90;;;;;;5015918;28;20033;-85
2022/06/12 04:16:59;;;;;;;12.40;2.00;;;12.30;99.90;;;;;;5016067;28;20068;-85
2022/06/12 04:19:26;;;;;;;9.43;2.00;;;12.30;99.90;;;;;;5016067;28;20018;-85
2022/06/12 04:21:59;;;;;;;13.02;2.15;;;12.40;99.90;;;;;;5016318;28;20389;-84
2022/06/12 04:24:38;;;;;;;6.85;2.17;;;12.50;99.90;;;;;;5015698;28;20032;-84
2022/06/12 04:27:16;;;;;;;10.63;2.22;;;12.50;99.90;;;;;;5033237;28;20492;-85
2022/06/12 04:29:52;;;;;;;12.07;2.53;;;12.60;99.90;;;;;;5032298;28;20539;-85
2022/06/12 04:32:18;;;;;;;8.70;2.13;;;12.60;99.90;;;;;;5015801;28;20128;-85
2022/06/12 04:34:44;;;;;;;19.15;3.05;;;12.60;99.90;;;;;;5031831;28;20493;-84
2022/06/12 04:37:20;;;;;;;9.68;2.95;;;12.70;99.90;;;;;;5032078;28;20026;-84
2022/06/12 04:39:47;;;;;;;26.48;2.67;;;12.80;99.90;;;;;;5015506;28;20025;-85
2022/06/12 04:42:15;;;;;;;11.25;2.20;;;12.90;99.90;;;;;;5033259;28;20030;-84
2022/06/12 04:44:41;;;;;;;10.40;2.83;;;12.90;99.90;;;;;;5033152;28;20075;-85
2022/06/12 04:47:10;;;;;;;13.82;2.70;;;13.00;99.90;;;;;;5033322;28;20420;-85
2022/06/12 04:49:36;;;;;;;10.05;2.00;;;13.00;99.90;;;;;;5015439;28;20420;-84
2022/06/12 04:52:06;;;;;;;10.85;2.38;;;13.10;99.90;;;;;;5031953;28;20033;-84
2022/06/12 04:54:33;;;;;;;9.00;2.25;;;13.30;99.90;;;;;;5015535;28;20075;-85
2022/06/12 04:56:59;;;;;;;7.13;1.98;;;13.60;99.90;;;;;;5033050;28;20025;-84
2022/06/12 04:59:25;;;;;;;8.02;2.63;;;14.00;99.90;;;;;;5015250;28;20037;-84
2022/06/12 05:01:51;;;;;;;11.40;2.20;;;14.40;99.90;;;;;;5015414;28;20018;-84
2022/06/12 05:04:18;;;;;;;13.82;2.35;;;14.80;99.90;;;;;;5015422;28;20037;-84
2022/06/12 05:06:44;;;;;;;9.90;1.65;;;15.20;99.90;;;;;;5015421;28;20075;-85
2022/06/12 05:09:13;;;;;;;10.82;1.63;;;15.50;99.90;;;;;;5034657;28;20034;-85
2022/06/12 05:11:39;;;;;;;10.68;2.20;;;15.80;99.90;;;;;;5018853;28;20048;-84
2022/06/12 05:14:05;;;;;;;8.23;1.77;;;16.10;99.90;;;;;;5019080;28;20128;-84
2022/06/12 05:16:34;;;;;;;9.15;1.42;;;16.40;99.90;;;;;;5018719;28;20489;-85
2022/06/12 05:19:01;;;;;;;8.48;1.70;;;16.70;99.90;;;;;;5035253;28;20481;-85
2022/06/12 05:21:28;;;;;;;10.15;1.73;;;17.00;99.90;;;;;;5018458;28;20112;-85
2022/06/12 05:23:54;;;;;;;6.20;1.20;;;17.30;99.90;;;;;;5018622;28;20060;-85
2022/06/12 05:26:21;;;;;;;9.57;1.50;;;17.60;99.90;;;;;;5018463;28;20025;-85
2022/06/12 05:28:47;;;;;;;8.77;1.38;;;17.80;99.90;;;;;;5018561;28;20025;-85
2022/06/12 05:31:13;;;;;;;8.02;1.80;;;17.90;99.90;;;;;;5018535;28;20104;-85
2022/06/12 05:33:39;;;;;;;10.35;1.95;;;18.10;99.90;;;;;;5035929;28;20071;-84
2022/06/12 05:36:06;;;;;;;7.43;1.73;;;18.30;99.90;;;;;;5018345;28;20112;-85
2022/06/12 05:38:32;;;;;;;10.15;2.10;;;18.50;99.90;;;;;;5035754;28;20107;-85
2022/06/12 05:40:58;;;;;;;9.77;1.75;;;18.60;99.90;;;;;;5018221;28;20025;-84
2022/06/12 05:43:23;;;;;;;12.60;2.58;;;18.70;99.90;;;;;;5034581;28;20504;-84
2022/06/12 05:45:49;;;;;;;8.30;1.92;;;18.80;99.90;;;;;;5017963;28;20496;-84
2022/06/12 05:48:18;;;;;;;9.07;1.83;;;18.80;99.90;;;;;;5018509;28;20092;-84
2022/06/12 05:50:57;;;;;;;10.60;2.00;;;18.80;99.90;;;;;;5035540;28;20377;-85
2022/06/12 05:53:25;;;;;;;14.55;2.38;;;18.70;99.90;;;;;;5017825;28;20030;-85
2022/06/12 05:55:51;;;;;;;13.68;2.13;;;18.60;99.90;;;;;;5035461;28;20458;-85
2022/06/12 05:58:18;;;;;;;11.68;2.17;;;18.50;99.90;;;;;;5017947;28;20096;-84
2022/06/12 06:00:45;;;;;;;9.27;2.00;;;18.50;99.90;;;;;;5017907;28;20025;-84
2022/06/12 06:03:12;;;;;;;12.07;2.55;;;18.40;99.90;;;;;;5035345;28;20394;-85
2022/06/12 06:05:39;;;;;;;10.85;2.13;;;18.30;99.90;;;;;;5035273;28;20488;-84
2022/06/12 06:08:05;;;;;;;14.02;2.30;;;18.30;99.90;;;;;;5017840;28;20489;-85
2022/06/12 06:10:31;;;;;;;11.07;2.30;;;18.20;99.90;;;;;;5035352;28;20061;-83
2022/06/12 06:12:57;;;;;;;10.95;2.38;;;18.10;99.90;;;;;;5034942;28;20461;-85
2022/06/12 06:15:23;;;;;;;12.50;2.60;;;18.10;99.90;;;;;;5017384;28;20397;-84
2022/06/12 06:17:49;;;;;;;11.02;3.08;;;18.10;99.90;;;;;;5035217;28;20022;-84
2022/06/12 06:20:22;;;;;;;12.27;2.85;;;18.20;99.90;;;;;;5034604;28;20068;-84
2022/06/12 06:22:49;;;;;;;12.90;2.65;;;18.30;99.90;;;;;;5017437;28;20084;-84
2022/06/12 06:25:15;;;;;;;15.43;2.85;;;18.30;99.90;;;;;;5017011;28;20029;-84
2022/06/12 06:27:41;;;;;;;11.02;2.53;;;18.40;99.90;;;;;;5017267;28;20385;-84
2022/06/12 06:30:07;;;;;;;14.07;2.75;;;18.40;99.90;;;;;;5033776;28;20027;-84
2022/06/12 06:32:33;;;;;;;15.70;3.30;;;18.40;99.90;;;;;;5017055;28;20401;-84
2022/06/12 06:34:59;;;;;;;16.33;3.42;;;18.50;99.90;;;;;;5033485;28;20052;-85
2022/06/12 06:37:25;;;;;;;12.73;2.60;;;18.50;99.90;;;;;;5017136;28;20515;-84
2022/06/12 06:39:51;;;;;;;17.33;3.75;;;18.50;99.90;;;;;;5017529;28;20124;-84
2022/06/12 06:42:17;;;;;;;10.35;2.90;;;18.50;99.90;;;;;;5016968;28;20366;-84
2022/06/12 06:47:27;;;;;;;15.00;3.75;;;18.50;99.90;;;;;;5035228;28;20141;-84
2022/06/12 06:49:53;;;;;;;11.68;2.72;;;18.50;99.90;;;;;;5033329;28;20049;-84
2022/06/12 06:52:19;;;;;;;12.38;3.00;;;18.60;99.90;;;;;;5034446;28;20025;-84
2022/06/12 06:54:44;;;;;;;15.45;3.47;;;18.70;99.90;;;;;;5016779;28;20029;-85
2022/06/12 06:57:10;;;;;;;19.70;3.05;;;18.90;99.90;;;;;;5033116;28;20064;-84
2022/06/12 06:59:37;;;;;;;12.20;2.60;;;18.90;99.90;;;;;;5016678;28;20061;-85
2022/06/12 07:02:03;;;;;;;17.45;3.30;;;18.90;99.90;;;;;;5016699;28;20108;-84
2022/06/12 07:04:28;;;;;;;10.70;2.60;;;18.90;99.90;;;;;;5034005;28;20434;-84
2022/06/12 07:06:54;;;;;;;15.38;3.35;;;19.00;99.90;;;;;;5034032;28;20440;-85
2022/06/12 07:09:19;;;;;;;16.83;3.72;;;19.00;99.90;;;;;;5034217;28;20025;-84
2022/06/12 07:11:45;;;;;;;9.18;2.40;;;19.10;99.90;;;;;;5016240;28;20029;-84
2022/06/12 07:14:10;;;;;;;13.40;3.00;;;19.10;99.90;;;;;;5016297;28;20546;-84
2022/06/12 07:16:38;;;;;;;16.13;3.45;;;19.00;99.90;;;;;;5032745;28;20121;-84
2022/06/12 07:19:04;;;;;;;15.20;3.17;;;18.90;99.90;;;;;;5016361;28;20026;-85
2022/06/12 07:21:30;;;;;;;14.20;3.33;;;18.90;99.90;;;;;;5016334;28;20029;-84
2022/06/12 07:23:55;;;;;;;11.65;2.67;;;18.90;99.90;;;;;;5016402;28;20470;-84
2022/06/12 07:26:28;;;;;;;13.57;2.72;;;19.00;99.90;;;;;;5015947;28;20025;-84
2022/06/12 07:28:54;;;;;;;12.15;2.97;;;19.10;99.90;;;;;;5016378;28;20106;-84
2022/06/12 07:31:21;;;;;;;16.92;3.50;;;19.20;99.90;;;;;;5033092;28;20030;-84
2022/06/12 07:33:46;;;;;;;16.05;2.75;;;19.30;99.90;;;;;;5016020;28;20099;-84
2022/06/12 07:36:14;;;;;;;12.13;2.38;;;19.30;99.90;;;;;;5015854;28;20069;-84
2022/06/12 07:38:41;;;;;;;17.88;3.00;;;19.40;99.90;;;;;;5016152;28;20026;-84
2022/06/12 07:41:09;;;;;;;14.57;2.08;;;19.50;99.90;;;;;;5016107;28;20474;-84
2022/06/12 07:43:36;;;;;;;11.52;2.78;;;19.50;99.90;;;;;;5033915;28;20091;-84
2022/06/12 07:46:07;;;;;;;11.90;1.90;;;19.60;99.90;;;;;;5033354;28;20029;-84
2022/06/12 07:48:33;;;;;;;15.02;2.20;;;19.60;99.90;;;;;;5033586;28;20060;-85
2022/06/12 07:51:01;;;;;;;10.45;2.08;;;19.60;99.90;;;;;;5033663;28;20090;-85
2022/06/12 07:53:27;;;;;;;10.55;1.63;;;19.70;99.90;;;;;;5015922;28;20037;-85
2022/06/12 07:55:53;;;;;;;11.55;1.90;;;19.80;99.90;;;;;;5015590;28;20084;-84
2022/06/12 07:58:23;;;;;;;12.75;1.67;;;19.90;99.90;;;;;;5015879;28;20040;-85
2022/06/12 08:00:49;;;;;;;12.57;1.50;;;20.00;99.90;;;;;;5016100;28;20030;-85
2022/06/12 08:03:14;;;;;;;11.43;2.15;;;20.10;99.90;;;;;;5015895;28;20032;-85
2022/06/12 08:05:40;;;;;;;12.25;2.22;;;20.30;99.90;;;;;;5015870;28;20029;-85
2022/06/12 08:08:06;;;;;;;8.93;1.52;;;20.50;99.90;;;;;;5015599;28;20424;-85
2022/06/12 08:10:31;;;;;;;11.80;1.73;;;20.50;99.90;;;;;;5016272;28;20022;-85
2022/06/12 08:12:57;;;;;;;11.43;1.52;;;20.50;99.90;;;;;;5015887;28;20030;-85
2022/06/12 08:15:27;;;;;;;12.18;2.17;;;20.60;99.90;;;;;;5015939;28;20030;-85
2022/06/12 08:17:53;;;;;;;10.65;1.73;;;20.60;99.90;;;;;;5015800;28;20050;-86
2022/06/12 08:20:26;;;;;;;9.05;1.52;;;20.50;99.90;;;;;;5015549;28;20025;-86
2022/06/12 08:23:26;;;;;;;12.25;2.00;;;20.50;99.90;;;;;;5015756;28;20112;-86
2022/06/12 08:26:12;;;;;;;8.93;1.20;;;20.40;99.90;;;;;;5033226;28;20036;-85
2022/06/12 08:28:44;;;;;;;10.00;1.52;;;20.50;99.90;;;;;;5015430;28;20053;-84
2022/06/12 08:31:13;;;;;;;12.57;1.85;;;20.50;99.90;;;;;;5032131;28;20068;-85
2022/06/12 08:33:41;;;;;;;9.43;1.23;;;20.50;99.90;;;;;;5015558;28;20041;-85
2022/06/12 08:36:09;;;;;;;12.68;1.45;;;20.50;99.90;;;;;;5015341;28;20050;-85
2022/06/12 08:38:35;;;;;;;8.88;1.73;;;20.60;99.90;;;;;;5033092;28;20026;-84
2022/06/12 08:41:09;;;;;;;9.73;2.08;;;20.70;99.90;;;;;;5031836;28;20021;-84
2022/06/12 08:43:56;;;;;;;8.32;1.58;;;20.60;99.90;;;;;;5017996;28;20025;-85
2022/06/12 08:46:28;;;;;;;11.90;1.73;;;20.60;99.90;;;;;;5036819;28;20029;-85
2022/06/12 08:49:04;;;;;;;14.98;2.45;;;20.70;99.90;;;;;;5019111;28;20104;-85
2022/06/12 08:51:46;;;;;;;11.30;1.40;;;20.70;99.90;;;;;;5036871;28;20481;-85
2022/06/12 08:54:30;;;;;;;11.98;2.20;;;20.70;99.90;;;;;;5018943;28;20044;-85
2022/06/12 08:57:04;;;;;;;10.10;1.73;;;20.70;99.90;;;;;;5035183;28;20489;-84
2022/06/12 08:59:36;;;;;;;9.70;1.80;;;20.60;99.90;;;;;;5018842;28;20033;-85
2022/06/12 09:02:04;;;;;;;13.32;1.58;;;20.70;99.90;;;;;;5019289;28;20029;-85
2022/06/12 09:04:30;;;;;;;9.13;1.33;;;20.70;99.90;;;;;;5019153;28;20044;-85
2022/06/12 09:07:11;;;;;;;12.40;1.70;;;20.70;99.90;;;;;;5018780;28;20021;-85
2022/06/12 09:09:52;;;;;;;11.13;2.58;;;21.00;99.60;;;;;;5036458;28;20029;-84
2022/06/12 09:12:51;;;;;;;5.03;0.95;;;21.10;98.80;;;;;;5036398;28;20029;-84
2022/06/12 09:15:32;;;;;;;7.35;1.52;;;21.30;98.20;;;;;;5036334;28;20029;-84
2022/06/12 09:18:09;;;;;;;7.57;1.02;;;21.50;97.80;;;;;;5036199;28;20092;-84
2022/06/12 09:21:03;;;;;;;9.77;1.58;;;21.50;97.70;;;;;;5034978;28;20032;-85
2022/06/12 09:23:38;;;;;;;9.02;1.25;;;21.60;97.50;;;;;;5011541;28;20038;-85
2022/06/12 09:26:36;;;;;;;7.53;1.35;;;21.70;97.50;;;;;;5018367;28;20021;-84
2022/06/12 09:29:19;;;;;;;8.35;1.20;;;21.80;97.30;;;;;;5036366;28;20108;-84
2022/06/12 09:31:50;;;;;;;10.38;2.13;;;21.90;97.10;;;;;;5035738;28;20014;-83
2022/06/12 09:34:34;;;;;;;8.67;0.97;;;21.90;97.00;;;;;;5017975;28;20120;-84
2022/06/12 09:40:08;;;;;;;6.80;1.30;;;22.20;95.60;;;;;;5035726;28;20048;-84
2022/06/12 09:43:01;;;;;;;8.27;0.70;;;22.30;95.20;;;;;;5018062;28;20029;-85
2022/06/12 09:45:40;;;;;;;9.00;0.88;;;22.40;94.60;;;;;;5017884;28;20026;-84
2022/06/12 09:48:17;;;;;;;5.93;0.73;;;22.40;93.50;;;;;;5018016;28;20029;-83
2022/06/12 09:51:18;;;;;;;5.07;0.88;;;22.50;93.00;;;;;;5034360;28;20456;-84
2022/06/12 09:54:08;;;;;;;8.07;0.98;;;22.50;92.80;;;;;;5031091;28;20130;-84
2022/06/12 09:56:47;;;;;;;7.25;0.60;;;22.50;92.10;;;;;;5035458;28;20025;-84
2022/06/12 09:59:40;;;;;;;7.72;0.75;;;22.50;92.00;;;;;;5035455;28;20032;-84
2022/06/12 10:02:16;;;;;;;7.20;1.00;;;22.50;91.60;;;;;;5017739;28;20116;-84
2022/06/12 10:04:53;;;;;;;8.45;1.10;;;22.40;91.70;;;;;;5017554;28;20108;-85
2022/06/12 10:07:30;;;;;;;9.02;1.60;;;22.40;91.90;;;;;;5035193;28;20045;-84
2022/06/12 10:10:09;;;;;;;6.28;1.10;;;22.50;91.80;;;;;;5017870;28;20087;-84
2022/06/12 10:12:40;;;;;;;7.43;1.00;;;22.50;91.60;;;;;;5035119;28;20504;-85
2022/06/12 10:15:17;;;;;;;8.33;1.50;;;22.40;91.90;;;;;;5017594;28;20040;-84
2022/06/12 10:17:51;;;;;;;8.05;1.17;;;22.60;92.10;;;;;;5034930;28;20104;-84
2022/06/12 10:20:29;;;;;;;7.13;1.23;;;22.70;92.20;;;;;;5035228;28;20049;-85
2022/06/12 10:22:56;;;;;;;9.60;1.30;;;22.60;91.90;;;;;;5035080;28;20021;-85
2022/06/12 10:25:46;;;;;;;6.15;1.08;;;22.60;92.20;;;;;;5017281;28;20163;-85
2022/06/12 10:28:14;;;;;;;9.63;1.52;;;22.60;92.40;;;;;;5017184;28;20047;-85
2022/06/12 10:30:43;;;;;;;10.40;1.58;;;22.60;91.80;;;;;;5034957;28;20026;-85
2022/06/12 10:33:19;;;;;;;7.90;1.50;;;22.50;91.50;;;;;;5033678;28;20110;-84
2022/06/12 10:35:56;;;;;;;6.93;1.48;;;22.40;91.60;;;;;;5033351;28;20124;-84
2022/06/12 10:38:23;;;;;;;7.55;0.80;;;22.40;92.00;;;;;;5017191;28;20481;-84
2022/06/12 10:40:54;;;;;;;7.43;1.25;;;22.50;91.70;;;;;;5034560;28;20035;-85
2022/06/12 10:43:53;;;;;;;6.82;0.88;;;22.60;91.50;;;;;;5034457;28;20029;-84
2022/06/12 10:46:24;;;;;;;8.45;1.10;;;22.60;90.80;;;;;;5033344;28;20041;-85
2022/06/12 10:49:01;;;;;;;6.47;1.23;;;22.50;90.30;;;;;;5034381;28;20485;-84
2022/06/12 10:51:39;;;;;;;5.03;1.05;;;22.40;90.70;;;;;;5016778;28;20028;-85
2022/06/12 10:54:16;;;;;;;9.20;0.82;;;22.40;90.50;;;;;;5034298;28;20405;-85
2022/06/12 10:57:15;;;;;;;6.78;0.80;;;22.40;91.00;;;;;;5016959;28;20021;-85
2022/06/12 11:00:01;;;;;;;5.07;0.57;;;22.60;91.20;;;;;;5033022;28;20026;-84
2022/06/12 11:03:12;;;;;;;4.57;0.68;;;23.00;90.30;;;;;;5016533;28;20022;-83
2022/06/12 11:06:09;;;;;;;4.75;1.02;;;23.00;88.30;;;;;;5015700;28;20029;-85
2022/06/12 11:08:58;;;;;;;4.18;0.60;;;23.00;87.60;;;;;;5016748;28;20421;-84
2022/06/12 11:11:42;;;;;;;5.20;0.73;;;22.90;86.40;;;;;;5032905;28;20037;-85
2022/06/12 11:14:29;;;;;;;9.25;0.90;;;22.90;86.00;;;;;;5033019;28;20067;-83
2022/06/12 11:17:21;;;;;;;4.97;0.75;;;23.00;86.60;;;;;;5033037;28;20492;-85
2022/06/12 11:20:17;;;;;;;8.98;1.02;;;23.00;85.20;;;;;;5016553;28;20025;-84
2022/06/12 11:23:04;;;;;;;4.88;0.73;;;22.90;85.20;;;;;;5032762;28;20457;-85
2022/06/12 11:25:29;;;;;;;6.03;0.60;;;22.90;86.10;;;;;;5016427;28;20026;-86
2022/06/12 11:28:11;;;;;;;9.05;1.13;;;23.00;85.70;;;;;;5033938;28;20491;-85
2022/06/12 11:30:55;;;;;;;5.63;1.15;;;23.00;85.20;;;;;;5033811;28;20021;-84
2022/06/12 11:33:51;;;;;;;7.00;1.00;;;22.80;84.70;;;;;;5032596;28;20041;-84
2022/06/12 11:36:42;;;;;;;4.38;1.00;;;22.80;84.70;;;;;;5015846;28;20072;-84
2022/06/12 11:39:13;;;;;;;7.05;0.70;;;23.00;85.50;;;;;;5033808;28;20021;-86
2022/06/12 11:41:41;;;;;;;5.00;0.80;;;23.00;84.80;;;;;;5032726;28;20060;-84
2022/06/12 11:44:33;;;;;;;7.55;0.90;;;22.90;84.20;;;;;;5032448;28;20030;-84
2022/06/12 11:47:17;;;;;;;4.53;0.87;;;22.90;83.50;;;;;;5033561;28;20053;-84
2022/06/12 11:49:56;;;;;;;4.88;0.70;;;22.80;84.10;;;;;;5033129;28;20283;-84
2022/06/12 11:52:41;;;;;;;3.20;0.60;;;23.10;83.30;;;;;;5032193;28;20025;-84
2022/06/12 11:55:31;;;;;;;3.55;0.50;;;23.20;81.90;;;;;;5032369;28;20512;-84
2022/06/12 11:58:17;;;;;;;5.13;0.85;;;23.30;81.00;;;;;;5032429;28;20120;-85
2022/06/12 12:00:57;;;;;;;5.75;0.60;;;23.20;80.00;;;;;;5016056;28;20512;-85
2022/06/12 12:03:38;;;;;;;7.35;0.50;;;23.00;78.50;;;;;;5033750;28;20022;-84
2022/06/12 12:06:06;;;;;;;3.72;0.50;;;22.90;78.90;;;;;;5032177;28;20480;-84
2022/06/12 12:08:48;;;;;;;6.20;0.68;;;22.90;78.40;;;;;;5032070;28;20112;-85
2022/06/12 12:11:19;;;;;;;;;;;22.80;78.60;;;;;;5033923;28;20094;-85
2022/06/12 12:13:48;;;;;;;3.42;0.47;;;22.90;78.30;;;;;;5032472;28;19913;-85
2022/06/12 12:16:14;;;;;;;3.55;0.40;;;22.90;77.50;;;;;;5015698;28;20025;-84
2022/06/12 12:18:46;;;;;;;3.45;0.60;;;22.80;76.40;;;;;;5035070;28;20032;-85
2022/06/12 12:21:25;;;;;;;3.90;0.60;;;22.80;76.10;;;;;;5019614;28;20033;-85
2022/06/12 12:23:51;;;;;;;3.17;0.50;;;22.90;77.30;;;;;;5037452;28;20013;-85
2022/06/12 12:26:33;;;;;;;3.55;0.57;;;23.00;77.50;;;;;;5019524;28;20121;-84
2022/06/12 12:29:00;;;;;;;;;;;23.20;75.90;;;;;;5019733;28;20079;-85
2022/06/12 12:31:28;;;;;;;4.38;0.52;;;23.30;76.10;;;;;;5019444;28;20459;-84
2022/06/12 12:33:55;;;;;;;4.47;0.70;;;23.40;75.50;;;;;;5036959;28;20103;-84
2022/06/12 12:42:34;;;;;;;3.78;0.68;;;23.60;73.90;;;;;;5025100;28;20075;-85
2022/06/12 12:45:11;;;;;;;4.70;0.40;;;23.80;74.90;;;;;;5037048;28;20025;-85
2022/06/12 12:47:37;;;;;;;4.90;0.52;;;23.90;74.20;;;;;;5036793;28;20026;-85
2022/06/12 12:50:17;;;;;;;3.85;0.50;;;23.90;73.80;;;;;;5035768;28;20029;-85
2022/06/12 12:52:56;;;;;;;3.55;0.50;;;24.10;73.20;;;;;;5018836;28;20021;-85
2022/06/12 12:55:31;;;;;;;2.78;0.47;;;24.00;73.20;;;;;;5036692;28;20022;-85
2022/06/12 12:58:00;;;;;;;2.97;0.50;;;24.00;73.20;;;;;;5019001;28;20035;-85
2022/06/12 13:00:35;;;;;;;4.70;0.43;;;23.90;72.80;;;;;;5019136;28;20116;-85
2022/06/12 13:03:09;;;;;;;4.03;0.85;;;23.80;72.40;;;;;;5018828;28;20124;-84
2022/06/12 13:05:46;;;;;;;3.63;0.40;;;23.70;73.00;;;;;;5035446;28;20061;-85
2022/06/12 13:08:29;;;;;;;2.63;0.40;;;23.70;71.50;;;;;;5035335;28;20036;-85
2022/06/12 13:11:28;;;;;;;2.30;0.50;;;23.60;71.10;;;;;;5035239;28;20021;-85
2022/06/12 13:14:05;;;;;;;3.13;0.50;;;23.60;71.00;;;;;;5035060;28;20041;-84
2022/06/12 13:17:13;;;;;;;4.00;0.55;;;23.40;70.80;;;;;;5035166;28;20462;-85
2022/06/12 13:20:03;;;;;;;5.20;0.57;;;23.40;71.00;;;;;;5018816;28;20033;-85
2022/06/12 13:22:58;;;;;;;4.22;0.45;;;23.50;71.30;;;;;;5035054;28;20032;-85
2022/06/12 13:25:46;;;;;;;4.07;0.52;;;23.60;70.80;;;;;;5036123;28;20381;-84
2022/06/12 13:28:27;;;;;;;4.28;0.50;;;23.60;70.00;;;;;;5018186;28;20075;-84
2022/06/12 13:30:54;;;;;;;9.75;1.33;;;23.50;69.70;;;;;;5017800;28;20029;-84
2022/06/12 13:33:27;;;;;;;3.00;0.60;;;23.50;70.00;;;;;;5018464;28;20116;-84
2022/06/12 13:35:58;;;;;;;3.55;0.73;;;23.40;70.40;;;;;;5014921;28;20112;-84
2022/06/12 13:38:31;;;;;;;3.65;0.47;;;23.20;69.90;;;;;;5031352;28;20076;-85